createdAt,value
2023-02-22T00:03:39.342Z,50.01
2023-02-22T00:08:38.710Z,50.08
2023-02-22T00:13:38.170Z,51.52
2023-02-22T00:18:37.919Z,51.00
2023-02-22T00:23:41.115Z,51.90
2023-02-22T00:28:40.097Z,51.35
2023-02-22T00:33:40.420Z,50.93
2023-02-22T00:38:42.234Z,51.02
2023-02-22T00:43:41.552Z,51.69
2023-02-22T00:48:40.462Z,51.56
2023-02-22T00:53:40.708Z,51.56
2023-02-22T00:58:39.714Z,51.62
2023-02-22T01:03:41.389Z,51.54
2023-02-22T01:08:45.539Z,50.57
2023-02-22T01:13:45.658Z,51.80
2023-02-22T01:18:44.601Z,51.51
2023-02-22T01:23:45.778Z,51.42
2023-02-22T01:28:44.525Z,51.67
2023-02-22T01:33:43.376Z,51.29
2023-02-22T01:38:42.214Z,51.49
2023-02-22T01:43:42.273Z,51.67
2023-02-22T01:48:44.526Z,51.10
2023-02-22T01:53:47.808Z,51.04
2023-02-22T01:58:48.549Z,50.68
2023-02-22T02:03:50.667Z,50.95
2023-02-22T02:09:00.129Z,51.07
2023-02-22T02:14:00.459Z,50.45
2023-02-22T02:18:59.595Z,51.39
2023-02-22T02:24:23.552Z,51.09
2023-02-22T02:30:02.906Z,51.49
2023-02-22T02:35:08.832Z,50.72
2023-02-22T02:40:17.949Z,50.27
2023-02-22T02:45:23.396Z,50.53
2023-02-22T02:50:28.602Z,50.45
2023-02-22T02:55:28.530Z,50.64
2023-02-22T03:00:39.371Z,50.74
2023-02-22T03:06:05.373Z,50.06
2023-02-22T03:11:15.434Z,49.38
2023-02-22T03:16:22.763Z,50.82
2023-02-22T03:21:31.103Z,50.67
2023-02-22T03:26:36.482Z,51.40
2023-02-22T03:31:41.597Z,51.59
2023-02-22T03:36:46.634Z,51.47
2023-02-22T03:41:51.567Z,52.46
2023-02-22T03:47:00.685Z,52.31
2023-02-22T03:52:02.311Z,52.54
2023-02-22T03:57:09.458Z,52.26
2023-02-22T04:02:11.013Z,52.76
2023-02-22T04:07:11.282Z,52.77
2023-02-22T04:12:10.752Z,52.93
2023-02-22T04:17:24.513Z,53.18
2023-02-22T04:22:24.891Z,52.79
2023-02-22T04:27:24.979Z,52.47
2023-02-22T04:32:26.645Z,52.90
2023-02-22T04:37:27.496Z,53.44
2023-02-22T04:42:27.051Z,53.21
2023-02-22T04:47:27.289Z,53.79
2023-02-22T04:52:28.623Z,53.48
2023-02-22T04:57:28.296Z,54.03
2023-02-22T05:02:27.905Z,53.67
2023-02-22T05:07:28.214Z,53.48
2023-02-22T05:12:28.652Z,54.28
2023-02-22T05:17:27.558Z,54.53
2023-02-22T05:22:27.944Z,54.36
2023-02-22T05:27:27.061Z,53.40
2023-02-22T05:32:25.870Z,53.41
2023-02-22T05:37:24.844Z,53.61
2023-02-22T05:42:25.068Z,53.62
2023-02-22T05:47:23.748Z,54.26
2023-02-22T05:52:22.584Z,53.52
2023-02-22T05:57:21.911Z,53.20
2023-02-22T06:02:22.112Z,53.63
2023-02-22T06:07:20.836Z,54.29
2023-02-22T06:12:19.710Z,54.66
2023-02-22T06:17:20.559Z,53.90
2023-02-22T06:22:21.343Z,53.69
2023-02-22T06:27:20.128Z,53.66
2023-02-22T06:32:19.004Z,55.14
2023-02-22T06:37:17.938Z,55.16
2023-02-22T06:42:18.186Z,55.90
2023-02-22T06:47:17.262Z,55.33
2023-02-22T06:52:15.978Z,55.37
2023-02-22T06:57:14.687Z,55.25
2023-02-22T07:02:21.351Z,55.47
2023-02-22T07:07:20.064Z,55.27
2023-02-22T07:12:18.925Z,54.72
2023-02-22T07:17:19.075Z,55.07
2023-02-22T07:22:17.910Z,54.94
2023-02-22T07:27:17.779Z,56.21
2023-02-22T07:32:16.665Z,56.07
2023-02-22T07:37:17.618Z,56.03
2023-02-22T07:42:16.747Z,57.09
2023-02-22T07:47:17.908Z,57.38
2023-02-22T07:52:18.125Z,57.48
2023-02-22T07:57:17.039Z,57.06
2023-02-22T08:02:17.125Z,57.02
2023-02-22T08:07:17.377Z,56.40
2023-02-22T08:12:16.627Z,55.90
2023-02-22T08:17:15.402Z,55.34
2023-02-22T08:22:14.234Z,54.47
2023-02-22T08:27:14.373Z,54.23
2023-02-22T08:32:13.246Z,54.76
2023-02-22T08:37:12.218Z,55.08
2023-02-22T08:42:11.473Z,54.64
2023-02-22T08:47:11.637Z,54.84
2023-02-22T08:52:10.961Z,54.23
2023-02-22T08:57:09.675Z,53.46
2023-02-22T09:02:16.944Z,51.87
2023-02-22T09:07:16.041Z,50.89
2023-02-22T09:12:15.922Z,49.34
2023-02-22T09:17:19.008Z,47.67
2023-02-22T09:22:26.241Z,47.19
2023-02-22T09:27:28.323Z,45.10
2023-02-22T09:32:28.851Z,45.72
2023-02-22T09:37:27.750Z,42.28
2023-02-22T09:42:33.756Z,41.61
2023-02-22T09:47:41.502Z,41.42
2023-02-22T09:52:47.611Z,40.48
2023-02-22T09:57:47.321Z,37.89
2023-02-22T10:02:53.820Z,37.53
2023-02-22T10:07:56.541Z,37.91
2023-02-22T10:13:02.700Z,35.82
2023-02-22T10:18:24.415Z,33.71
2023-02-22T10:23:31.996Z,34.05
2023-02-22T10:28:36.134Z,33.65
2023-02-22T10:33:47.713Z,33.16
2023-02-22T10:38:53.755Z,32.05
2023-02-22T10:43:52.736Z,31.01
2023-02-22T10:48:56.166Z,31.45
2023-02-22T10:54:00.881Z,31.10
2023-02-22T10:59:06.509Z,30.72
2023-02-22T11:04:13.435Z,28.42
2023-02-22T11:09:14.689Z,28.14
2023-02-22T11:14:16.356Z,29.07
2023-02-22T11:19:21.143Z,26.79
2023-02-22T11:24:24.352Z,27.10
2023-02-22T11:29:27.268Z,24.09
2023-02-22T11:34:31.717Z,25.36
2023-02-22T11:39:35.698Z,23.81
2023-02-22T11:44:34.478Z,24.53
2023-02-22T11:49:38.366Z,24.62
2023-02-22T11:55:10.811Z,22.82
2023-02-22T12:00:24.792Z,22.63
2023-02-22T12:05:38.045Z,23.16
2023-02-22T12:10:49.765Z,22.48
2023-02-22T12:15:57.559Z,22.71
2023-02-22T12:21:01.674Z,20.88
2023-02-22T12:26:05.432Z,23.36
2023-02-22T12:31:19.856Z,22.57
2023-02-22T12:36:24.088Z,22.79
2023-02-22T12:41:29.879Z,23.21
2023-02-22T12:46:34.652Z,22.40
2023-02-22T12:51:42.404Z,22.29
2023-02-22T12:56:46.013Z,22.50
2023-02-22T13:01:51.613Z,21.27
2023-02-22T13:07:04.731Z,22.68
2023-02-22T13:12:10.389Z,22.99
2023-02-22T13:17:21.113Z,21.68
2023-02-22T13:22:24.609Z,21.20
2023-02-22T13:27:29.511Z,19.87
2023-02-22T13:32:39.337Z,20.51
2023-02-22T13:37:52.959Z,21.54
2023-02-22T13:43:20.776Z,22.43
2023-02-22T13:49:06.761Z,22.12
2023-02-22T13:54:10.639Z,21.42
2023-02-22T13:59:25.469Z,21.42
2023-02-22T14:04:40.673Z,21.89
2023-02-22T14:09:48.401Z,21.52
2023-02-22T14:15:29.229Z,21.41
2023-02-22T14:20:35.257Z,21.44
2023-02-22T14:25:39.178Z,22.37
2023-02-22T14:30:40.293Z,24.20
2023-02-22T14:35:49.986Z,24.95
2023-02-22T14:40:52.878Z,24.51
2023-02-22T14:45:55.033Z,24.49
2023-02-22T14:50:58.647Z,23.59
2023-02-22T14:56:03.610Z,23.51
2023-02-22T15:01:24.321Z,25.38
2023-02-22T15:06:31.452Z,25.66
2023-02-22T15:11:33.377Z,25.93
2023-02-22T15:16:35.535Z,25.67
2023-02-22T15:21:35.530Z,25.59
2023-02-22T15:26:44.228Z,25.64
2023-02-22T15:31:48.247Z,26.43
2023-02-22T15:36:54.506Z,26.79
2023-02-22T15:42:05.231Z,26.92
2023-02-22T15:47:04.920Z,27.80
2023-02-22T15:52:07.963Z,28.32
2023-02-22T15:57:08.204Z,28.93
2023-02-22T16:02:07.190Z,29.90
2023-02-22T16:07:17.332Z,30.99
2023-02-22T16:12:29.252Z,31.85
2023-02-22T16:17:36.365Z,33.10
2023-02-22T16:22:37.038Z,34.90
2023-02-22T16:27:47.862Z,35.25
2023-02-22T16:32:47.391Z,36.67
2023-02-22T16:37:47.645Z,37.25
2023-02-22T16:42:47.765Z,38.31
2023-02-22T16:47:46.930Z,38.99
2023-02-22T16:52:45.990Z,39.42
2023-02-22T16:57:45.740Z,40.20
2023-02-22T17:02:46.673Z,41.45
2023-02-22T17:07:46.350Z,41.30
2023-02-22T17:12:47.585Z,41.46
2023-02-22T17:17:47.784Z,42.02
2023-02-22T17:22:47.860Z,42.29
2023-02-22T17:27:51.128Z,42.85
2023-02-22T17:32:52.636Z,43.20
2023-02-22T17:37:52.648Z,42.92
2023-02-22T17:42:55.306Z,43.10
2023-02-22T17:47:58.316Z,43.53
2023-02-22T17:52:56.855Z,43.70
2023-02-22T17:57:58.767Z,43.64
2023-02-22T18:02:58.986Z,44.48
2023-02-22T18:07:59.413Z,44.54
2023-02-22T18:13:02.011Z,44.26
2023-02-22T18:18:06.499Z,44.39
2023-02-22T18:23:08.031Z,44.54
2023-02-22T18:28:08.266Z,44.49
2023-02-22T18:33:11.297Z,44.88
2023-02-22T18:38:14.683Z,45.53
2023-02-22T18:43:13.633Z,45.85
2023-02-22T18:48:20.482Z,46.26
2023-02-22T18:53:19.374Z,45.70
2023-02-22T18:58:18.136Z,46.61
2023-02-22T19:03:16.935Z,46.62
2023-02-22T19:08:17.176Z,46.38
2023-02-22T19:13:16.812Z,45.83
2023-02-22T19:18:15.560Z,46.11
2023-02-22T19:23:14.377Z,45.76
2023-02-22T19:28:15.667Z,45.67
2023-02-22T19:33:14.435Z,45.39
2023-02-22T19:38:13.442Z,45.53
2023-02-22T19:43:14.473Z,45.26
2023-02-22T19:48:15.627Z,45.28
2023-02-22T19:53:14.593Z,45.17
2023-02-22T19:58:15.424Z,45.16
2023-02-22T20:03:24.996Z,45.67
2023-02-22T20:08:26.408Z,46.60
2023-02-22T20:13:26.399Z,47.28
2023-02-22T20:18:27.350Z,46.99
2023-02-22T20:23:26.299Z,46.29
2023-02-22T20:28:25.521Z,46.35
2023-02-22T20:33:24.996Z,45.89
2023-02-22T20:38:25.232Z,46.07
2023-02-22T20:43:24.260Z,45.73
2023-02-22T20:48:26.242Z,45.72
2023-02-22T20:53:26.509Z,45.65
2023-02-22T20:58:30.345Z,45.77
2023-02-22T21:03:29.132Z,45.60
2023-02-22T21:08:29.295Z,45.63
2023-02-22T21:13:28.668Z,46.18
2023-02-22T21:18:33.217Z,45.77
2023-02-22T21:23:33.523Z,46.13
2023-02-22T21:28:50.394Z,46.81
2023-02-22T21:34:01.824Z,46.43
2023-02-22T21:39:08.552Z,46.23
2023-02-22T21:44:22.829Z,45.88
2023-02-22T21:49:23.843Z,45.72
2023-02-22T21:54:24.630Z,45.75
2023-02-22T21:59:24.085Z,45.43
2023-02-22T22:04:27.872Z,45.28
2023-02-22T22:09:33.273Z,45.25
2023-02-22T22:14:32.392Z,45.71
2023-02-22T22:19:35.003Z,45.69
2023-02-22T22:24:35.488Z,46.33
2023-02-22T22:29:35.283Z,46.35
2023-02-22T22:34:35.079Z,46.78
2023-02-22T22:39:35.284Z,46.69
2023-02-22T22:44:41.997Z,46.73
2023-02-22T22:49:42.667Z,46.77
2023-02-22T22:54:45.789Z,46.80
2023-02-22T22:59:44.552Z,46.96
2023-02-22T23:04:43.458Z,47.00
2023-02-22T23:09:45.080Z,47.10
2023-02-22T23:14:47.146Z,47.45
2023-02-22T23:19:46.531Z,47.16
2023-02-22T23:24:46.675Z,47.04
2023-02-22T23:29:46.845Z,47.03
2023-02-22T23:34:49.635Z,47.60
2023-02-22T23:39:51.042Z,47.59
2023-02-22T23:44:53.066Z,47.51
2023-02-22T23:49:51.944Z,47.47
2023-02-22T23:54:53.954Z,47.01
2023-02-22T23:59:53.007Z,47.35
